Time;durP1;ratioP1;P1;durP2;ratioP2;P2;SDS_P1;SDS_P2;PMS_P1;PMS_P2;Temp;Humidity;BMP_temperature;BMP_pressure;BME280_temperature;BME280_humidity;BME280_pressure;Samples;Min_cycle;Max_cycle;Signal;HPM_P1;HPM_P2
2024/03/22 00:01:47;;;;;;;23.42;12.38;;;;;;;13.13;56.52;100511.47;5129927;27;20436;-49
2024/03/22 00:04:14;;;;;;;27.02;13.10;;;;;;;13.05;57.49;100511.97;5129917;27;20492;-51
2024/03/22 00:06:45;;;;;;;25.17;12.77;;;;;;;13.07;57.40;100512.72;5128611;28;20046;-50
2024/03/22 00:09:12;;;;;;;25.75;13.00;;;;;;;13.09;57.45;100505.44;5130003;27;20051;-49
2024/03/22 00:11:40;;;;;;;28.77;13.85;;;;;;;13.08;57.55;100508.22;5129855;27;20131;-48
2024/03/22 00:14:07;;;;;;;27.27;13.38;;;;;;;13.05;57.66;100503.94;5112572;28;20047;-48
2024/03/22 00:16:43;;;;;;;23.73;12.77;;;;;;;13.08;57.84;100509.06;5129582;28;20039;-47
2024/03/22 00:19:12;;;;;;;24.40;12.48;;;;;;;13.09;57.54;100508.09;5112552;28;20377;-50
2024/03/22 00:21:45;;;;;;;26.30;13.43;;;;;;;13.16;57.89;100506.75;5129816;28;20054;-48
2024/03/22 00:24:11;;;;;;;25.67;13.18;;;;;;;13.13;57.75;100506.97;5129693;27;20051;-49
2024/03/22 00:26:39;;;;;;;28.73;14.40;;;;;;;13.09;58.31;100500.06;5133521;27;20454;-48
2024/03/22 00:29:05;;;;;;;25.33;13.07;;;;;;;13.17;57.95;100492.38;5133486;27;20070;-48
2024/03/22 00:31:32;;;;;;;26.23;13.52;;;;;;;13.12;58.38;100494.53;5133805;27;20126;-49
2024/03/22 00:34:00;;;;;;;26.45;12.98;;;;;;;13.14;58.00;100492.59;5133399;27;20043;-47
2024/03/22 00:36:28;;;;;;;24.75;13.48;;;;;;;13.26;57.95;100496.31;5133388;27;20356;-48
2024/03/22 00:38:54;;;;;;;25.42;12.70;;;;;;;13.25;57.90;100493.72;5133436;27;20403;-48
2024/03/22 00:41:24;;;;;;;27.13;13.20;;;;;;;13.26;57.79;100484.72;5133328;27;20053;-48
2024/03/22 00:43:50;;;;;;;26.30;13.15;;;;;;;13.28;58.15;100490.84;5133359;27;20096;-51
2024/03/22 00:46:18;;;;;;;25.00;12.77;;;;;;;13.30;57.80;100491.59;5133295;27;20078;-48
2024/03/22 00:48:44;;;;;;;26.15;13.63;;;;;;;13.30;58.03;100487.09;5133247;27;20404;-50
2024/03/22 00:51:13;;;;;;;24.08;13.07;;;;;;;13.30;58.10;100475.50;5133266;27;20083;-50
2024/03/22 00:53:39;;;;;;;22.98;12.35;;;;;;;13.31;57.77;100477.22;5133038;27;20051;-50
2024/03/22 00:56:09;;;;;;;26.48;13.77;;;;;;;13.31;58.42;100483.44;5131491;27;20055;-49
2024/03/22 00:58:35;;;;;;;28.10;13.73;;;;;;;13.30;57.79;100480.88;5133130;27;20063;-47
2024/03/22 01:01:05;;;;;;;25.67;13.23;;;;;;;13.28;58.27;100477.44;5133430;27;20072;-50
2024/03/22 01:03:32;;;;;;;29.48;13.70;;;;;;;13.26;57.95;100480.22;5133265;27;20043;-49
2024/03/22 01:06:00;;;;;;;23.05;12.50;;;;;;;13.28;58.64;100482.81;5133151;27;20434;-49
2024/03/22 01:08:27;;;;;;;24.70;12.05;;;;;;;13.29;58.09;100473.81;5133088;27;20050;-52
2024/03/22 01:10:55;;;;;;;25.08;12.07;;;;;;;13.28;58.49;100482.81;5132516;27;20522;-48
2024/03/22 01:13:21;;;;;;;26.35;12.70;;;;;;;13.28;58.56;100482.81;5132480;27;20087;-50
2024/03/22 01:15:49;;;;;;;25.52;13.13;;;;;;;13.30;58.38;100480.88;5132676;27;20051;-50
2024/03/22 01:18:15;;;;;;;24.95;12.10;;;;;;;13.30;58.31;100486.22;5115512;27;20389;-46
2024/03/22 01:20:46;;;;;;;26.13;13.20;;;;;;;13.35;57.97;100484.13;5132513;27;20442;-48
2024/03/22 01:23:12;;;;;;;22.63;12.75;;;;;;;13.37;58.12;100479.50;5132483;27;20051;-50
2024/03/22 01:25:43;;;;;;;25.58;12.63;;;;;;;13.34;58.21;100482.41;5132379;27;20043;-47
2024/03/22 01:28:09;;;;;;;26.27;13.38;;;;;;;13.21;58.66;100481.50;5132653;27;20047;-48
2024/03/22 01:30:40;;;;;;;29.15;13.73;;;;;;;13.20;58.91;100482.47;5132576;27;20039;-48
2024/03/22 01:33:06;;;;;;;25.25;12.50;;;;;;;13.22;58.68;100483.19;5132131;27;20054;-47
2024/03/22 01:35:33;;;;;;;22.40;11.65;;;;;;;13.32;58.35;100479.81;5131576;27;20079;-46
2024/03/22 01:38:00;;;;;;;27.13;13.48;;;;;;;13.22;58.84;100478.75;5131998;27;20146;-48
2024/03/22 01:40:31;;;;;;;25.23;12.32;;;;;;;13.23;58.85;100469.75;5132293;27;20051;-48
2024/03/22 01:43:00;;;;;;;23.10;13.35;;;;;;;13.32;58.60;100484.34;5115485;27;20105;-48
2024/03/22 01:45:32;;;;;;;24.83;12.73;;;;;;;13.33;59.00;100475.31;5131944;27;20047;-50
2024/03/22 01:47:59;;;;;;;23.83;12.93;;;;;;;13.38;58.45;100475.84;5131921;27;20101;-48
2024/03/22 01:50:27;;;;;;;25.13;13.45;;;;;;;13.37;58.55;100471.47;5131003;27;20321;-49
2024/03/22 01:52:54;;;;;;;26.38;13.65;;;;;;;13.37;58.50;100474.16;5131855;27;20047;-47
2024/03/22 01:55:25;;;;;;;29.70;13.40;;;;;;;13.38;58.14;100473.19;5131684;27;20144;-48
2024/03/22 01:57:52;;;;;;;26.98;13.82;;;;;;;13.40;58.07;100468.56;5131818;27;20357;-50
2024/03/22 02:00:21;;;;;;;23.80;13.07;;;;;;;13.36;58.25;100462.56;5131916;27;20047;-50
2024/03/22 02:02:48;;;;;;;27.75;12.50;;;;;;;13.36;58.26;100464.41;5131880;27;20103;-49
2024/03/22 02:05:20;;;;;;;26.63;13.75;;;;;;;13.39;58.17;100465.03;5131623;27;20043;-48
2024/03/22 02:07:47;;;;;;;22.60;12.23;;;;;;;13.39;58.32;100464.16;5131523;27;20131;-49
2024/03/22 02:10:18;;;;;;;23.58;12.90;;;;;;;13.41;58.08;100478.31;5131867;27;20043;-48
2024/03/22 02:12:45;;;;;;;25.33;12.18;;;;;;;13.36;58.94;100469.75;5131471;27;20133;-48
2024/03/22 02:15:12;;;;;;;24.38;13.05;;;;;;;13.38;58.30;100467.81;5131040;27;20112;-49
2024/03/22 02:17:41;;;;;;;24.90;12.63;;;;;;;13.34;58.68;100466.31;5131362;27;20065;-46
2024/03/22 02:20:08;;;;;;;27.23;13.23;;;;;;;13.35;58.63;100468.91;5131034;27;20131;-48
2024/03/22 02:22:36;;;;;;;24.65;13.18;;;;;;;13.35;58.39;100470.72;5131215;27;20125;-46
2024/03/22 02:25:05;;;;;;;25.65;13.20;;;;;;;13.36;58.49;100470.59;5114347;27;20278;-49
2024/03/22 02:27:33;;;;;;;26.38;13.70;;;;;;;13.35;58.46;100476.94;5131158;27;20505;-49
2024/03/22 02:30:00;;;;;;;23.25;12.93;;;;;;;13.32;58.73;100476.28;5131000;27;20062;-49
2024/03/22 02:32:27;;;;;;;27.88;13.27;;;;;;;13.28;58.75;100466.72;5130848;27;20043;-51
2024/03/22 02:34:53;;;;;;;22.83;12.10;;;;;;;13.23;58.67;100468.88;5131097;27;20133;-48
2024/03/22 02:37:21;;;;;;;27.38;13.18;;;;;;;13.20;59.17;100466.38;5131157;27;20050;-48
2024/03/22 02:39:47;;;;;;;30.60;14.23;;;;;;;13.20;59.35;100463.72;5131032;27;20111;-50
2024/03/22 02:42:16;;;;;;;27.75;13.93;;;;;;;13.18;59.45;100456.59;5131068;27;20046;-48
2024/03/22 02:44:42;;;;;;;27.92;13.55;;;;;;;13.22;59.67;100456.41;5130664;27;20047;-51
2024/03/22 02:47:11;;;;;;;27.02;14.13;;;;;;;13.08;60.00;100455.50;5130126;27;20120;-46
2024/03/22 02:49:41;;;;;;;25.80;13.25;;;;;;;13.14;59.41;100460.47;5130076;27;20047;-48
2024/03/22 02:52:09;;;;;;;24.50;13.63;;;;;;;13.14;59.56;100457.78;5130808;27;20051;-49
2024/03/22 02:54:36;;;;;;;25.05;13.30;;;;;;;13.18;59.72;100453.06;5130534;27;20047;-46
2024/03/22 02:57:04;;;;;;;27.02;14.15;;;;;;;13.14;60.05;100460.47;5113399;27;20047;-49
2024/03/22 02:59:35;;;;;;;32.33;14.93;;;;;;;13.03;60.39;100463.00;5113839;27;20047;-48
2024/03/22 03:02:02;;;;;;;29.23;14.88;;;;;;;13.04;60.22;100454.00;5130339;27;20500;-49
2024/03/22 03:04:28;;;;;;;25.60;14.18;;;;;;;13.11;60.09;100452.63;5130461;27;20137;-48
2024/03/22 03:06:58;;;;;;;31.45;14.70;;;;;;;13.14;59.98;100457.78;5130446;27;20055;-47
2024/03/22 03:09:25;;;;;;;29.02;15.48;;;;;;;13.03;60.21;100449.63;5130483;27;20051;-51
2024/03/22 03:11:52;;;;;;;30.95;14.57;;;;;;;13.09;60.21;100451.00;5130453;27;20047;-50
2024/03/22 03:14:21;;;;;;;25.48;14.15;;;;;;;13.04;60.80;100454.00;5130008;27;20501;-51
2024/03/22 03:16:53;;;;;;;28.25;14.45;;;;;;;13.07;60.93;100445.75;5130402;27;20082;-50
2024/03/22 03:19:19;;;;;;;26.48;14.57;;;;;;;13.05;61.42;100445.03;5129396;27;20047;-50
2024/03/22 03:21:46;;;;;;;29.95;14.80;;;;;;;13.01;61.71;100443.50;5130444;27;20099;-47
2024/03/22 03:24:16;;;;;;;27.38;14.40;;;;;;;12.97;61.82;100444.66;5130283;27;20039;-53
2024/03/22 03:26:43;;;;;;;27.00;15.15;;;;;;;12.87;62.63;100446.25;5130022;27;20099;-48
2024/03/22 03:29:09;;;;;;;25.92;14.30;;;;;;;12.90;62.79;100449.56;5130130;28;20484;-50
2024/03/22 03:31:37;;;;;;;28.67;14.75;;;;;;;12.95;62.98;100448.41;5130142;28;20039;-47
2024/03/22 03:34:08;;;;;;;30.38;15.65;;;;;;;12.83;63.55;100452.75;5130128;27;20503;-46
2024/03/22 03:36:35;;;;;;;27.98;15.38;;;;;;;12.91;63.46;100455.78;5129845;28;20126;-48
2024/03/22 03:39:03;;;;;;;29.50;16.23;;;;;;;12.79;64.00;100461.94;5129980;27;20058;-47
2024/03/22 03:41:33;;;;;;;24.50;14.48;;;;;;;12.85;64.01;100458.88;5130020;27;20039;-49
2024/03/22 03:44:00;;;;;;;26.17;15.50;;;;;;;12.84;64.77;100451.81;5130244;27;20058;-49
2024/03/22 03:46:27;;;;;;;27.15;16.17;;;;;;;12.74;65.31;100448.00;5129985;27;20043;-48
2024/03/22 03:48:53;;;;;;;25.65;15.57;;;;;;;12.73;65.68;100448.97;5130040;27;20043;-49
2024/03/22 03:51:22;;;;;;;26.83;15.70;;;;;;;12.77;65.88;100456.69;5130030;27;20135;-50
2024/03/22 03:53:48;;;;;;;27.92;15.27;;;;;;;12.75;66.15;100452.41;5129863;27;20514;-47
2024/03/22 03:56:16;;;;;;;26.85;15.48;;;;;;;12.79;66.19;100452.09;5129624;28;20499;-48
2024/03/22 03:58:49;;;;;;;29.23;15.15;;;;;;;12.75;66.74;100457.78;5130346;27;20039;-49
2024/03/22 04:01:17;;;;;;;27.77;15.80;;;;;;;12.70;67.20;100459.88;5117482;27;20051;-49
2024/03/22 04:03:44;;;;;;;27.67;15.50;;;;;;;12.67;67.62;100465.44;5134016;27;20751;-49
2024/03/22 04:06:11;;;;;;;26.33;15.75;;;;;;;12.71;68.03;100461.59;5133861;27;20089;-46
2024/03/22 04:08:43;;;;;;;23.52;15.15;;;;;;;12.61;69.09;100462.19;5133839;27;20043;-48
2024/03/22 04:11:11;;;;;;;26.42;15.50;;;;;;;12.58;70.07;100465.06;5134055;27;20043;-50
2024/03/22 04:13:37;;;;;;;27.58;16.65;;;;;;;12.74;69.63;100459.59;5133873;27;20043;-49
2024/03/22 04:16:06;;;;;;;25.85;15.65;;;;;;;12.78;70.24;100462.91;5133641;27;20423;-50
2024/03/22 04:18:32;;;;;;;26.17;15.35;;;;;;;12.76;71.03;100475.53;5133679;27;20050;-47
2024/03/22 04:21:00;;;;;;;27.45;15.48;;;;;;;12.74;71.71;100472.09;5133527;27;20086;-45
2024/03/22 04:23:29;;;;;;;27.38;16.00;;;;;;;12.80;71.62;100469.88;5116334;27;20093;-46
2024/03/22 04:25:59;;;;;;;26.33;15.32;;;;;;;12.80;71.77;100482.41;5133716;27;20043;-48
2024/03/22 04:28:29;;;;;;;23.85;14.82;;;;;;;12.79;72.20;100475.34;5133776;27;20066;-50
2024/03/22 04:31:00;;;;;;;27.83;16.13;;;;;;;12.87;71.90;100478.38;5133504;27;20042;-49
2024/03/22 04:33:28;;;;;;;25.65;15.43;;;;;;;12.70;72.81;100482.16;5133275;27;20039;-50
2024/03/22 04:35:59;;;;;;;30.60;16.50;;;;;;;12.74;72.94;100483.69;5133047;27;20043;-48
2024/03/22 04:38:30;;;;;;;26.67;15.75;;;;;;;12.72;72.98;100480.22;5133498;27;20043;-46
2024/03/22 04:40:59;;;;;;;28.27;17.35;;;;;;;12.76;72.79;100484.44;5133239;27;20081;-50
2024/03/22 04:43:26;;;;;;;27.45;16.88;;;;;;;12.62;73.89;100476.44;5133404;27;20052;-48
2024/03/22 04:45:54;;;;;;;26.83;15.77;;;;;;;12.54;74.31;100479.59;5133190;27;20354;-49
2024/03/22 04:48:21;;;;;;;26.08;15.25;;;;;;;12.68;73.86;100480.53;5133471;27;20046;-47
2024/03/22 04:50:50;;;;;;;24.00;14.90;;;;;;;12.69;73.71;100485.78;5133335;27;20077;-50
2024/03/22 04:53:18;;;;;;;23.42;14.35;;;;;;;12.66;74.04;100483.31;5133546;27;20256;-49
2024/03/22 04:55:45;;;;;;;24.17;14.80;;;;;;;12.70;73.60;100481.28;5115935;27;20047;-46
2024/03/22 04:58:15;;;;;;;23.75;15.38;;;;;;;12.70;74.47;100486.66;5133376;27;20156;-51
2024/03/22 05:00:42;;;;;;;26.00;14.38;;;;;;;12.77;74.03;100487.97;5133727;27;20506;-50
2024/03/22 05:03:09;;;;;;;24.52;14.35;;;;;;;12.65;74.50;100488.78;5133613;27;20079;-50
2024/03/22 05:05:36;;;;;;;26.75;15.05;;;;;;;12.67;74.56;100478.81;5133261;27;20496;-52
2024/03/22 05:08:04;;;;;;;26.10;15.00;;;;;;;12.60;74.86;100476.53;5133676;27;20081;-49
2024/03/22 05:10:32;;;;;;;28.45;14.98;;;;;;;12.67;74.42;100484.19;5131250;27;20075;-53
2024/03/22 05:12:58;;;;;;;26.13;15.75;;;;;;;12.64;74.89;100484.34;5133192;27;20479;-46
2024/03/22 05:15:27;;;;;;;22.23;14.15;;;;;;;12.69;74.46;100485.78;5132616;27;20070;-48
2024/03/22 05:18:09;;;;;;;25.70;15.77;;;;;;;12.49;75.37;100483.53;5133236;27;20039;-49
2024/03/22 05:20:39;;;;;;;28.77;15.15;;;;;;;12.53;75.93;100480.56;5129479;27;20390;-49
2024/03/22 05:23:05;;;;;;;24.40;15.38;;;;;;;12.39;76.79;100488.63;5132811;27;20047;-52
2024/03/22 05:25:32;;;;;;;25.40;15.02;;;;;;;12.37;77.17;100485.19;5132722;27;20050;-48
2024/03/22 05:28:01;;;;;;;25.42;15.98;;;;;;;12.43;77.26;100492.81;5132466;27;20039;-48
2024/03/22 05:30:30;;;;;;;23.40;14.35;;;;;;;12.56;76.61;100491.09;5132882;27;20176;-48
2024/03/22 05:32:57;;;;;;;26.08;15.32;;;;;;;12.49;77.45;100488.91;5132954;27;20046;-48
2024/03/22 05:35:24;;;;;;;24.23;14.60;;;;;;;12.58;76.82;100483.81;5132338;27;20104;-47
2024/03/22 05:37:50;;;;;;;23.98;14.48;;;;;;;12.66;77.03;100488.66;5132511;27;20047;-49
2024/03/22 05:40:21;;;;;;;26.67;15.23;;;;;;;12.68;76.59;100473.38;5132505;27;20059;-49
2024/03/22 05:42:47;;;;;;;26.45;14.85;;;;;;;12.76;76.39;100473.72;5132338;27;20055;-47
2024/03/22 05:45:14;;;;;;;25.60;15.32;;;;;;;12.79;76.67;100478.00;5132565;27;20119;-51
2024/03/22 05:47:43;;;;;;;24.05;14.68;;;;;;;12.60;77.40;100476.53;5132592;27;20055;-48
2024/03/22 05:50:14;;;;;;;22.77;14.18;;;;;;;12.56;77.94;100477.72;5132138;27;20051;-50
2024/03/22 05:52:40;;;;;;;22.55;14.30;;;;;;;12.58;78.07;100485.63;5132301;27;20130;-47
2024/03/22 05:55:11;;;;;;;21.92;14.43;;;;;;;12.67;77.50;100479.69;5132051;27;20047;-47
2024/03/22 05:57:37;;;;;;;25.17;15.45;;;;;;;12.64;77.72;100484.34;5132164;27;20407;-49
2024/03/22 06:00:06;;;;;;;23.15;14.18;;;;;;;12.63;77.91;100488.84;5114753;27;20047;-49
2024/03/22 06:02:33;;;;;;;23.27;13.98;;;;;;;12.63;77.65;100486.16;5132045;27;20133;-50
2024/03/22 06:05:02;;;;;;;26.63;14.40;;;;;;;12.76;76.96;100478.22;5131690;27;20126;-50
2024/03/22 06:07:30;;;;;;;21.60;13.85;;;;;;;12.78;76.71;100479.81;5114387;27;20046;-49
2024/03/22 06:10:00;;;;;;;22.83;13.95;;;;;;;12.85;76.17;100477.63;5131493;27;20075;-47
2024/03/22 06:12:26;;;;;;;22.58;14.05;;;;;;;12.81;75.78;100484.13;5131589;27;20398;-47
2024/03/22 06:14:53;;;;;;;23.10;14.15;;;;;;;12.99;74.91;100477.53;5131149;27;20115;-46
2024/03/22 06:17:20;;;;;;;25.58;15.15;;;;;;;12.97;75.01;100486.66;5131395;27;20509;-49
2024/03/22 06:19:47;;;;;;;21.30;13.68;;;;;;;13.02;74.98;100482.69;5131452;27;20411;-51
2024/03/22 06:22:18;;;;;;;23.10;13.27;;;;;;;13.12;74.55;100481.16;5131365;27;20468;-52
2024/03/22 06:24:46;;;;;;;22.13;13.40;;;;;;;12.99;75.04;100482.91;5131508;27;20046;-48
2024/03/22 06:27:15;;;;;;;24.90;13.45;;;;;;;12.99;75.47;100482.91;5131210;27;20039;-47
2024/03/22 06:29:42;;;;;;;24.35;13.60;;;;;;;13.05;75.40;100482.50;5131417;27;20389;-49
2024/03/22 06:32:12;;;;;;;23.30;13.70;;;;;;;12.98;75.73;100485.69;5131507;27;20100;-48
2024/03/22 06:34:42;;;;;;;23.20;13.25;;;;;;;12.98;76.15;100481.19;5131290;27;20096;-51
2024/03/22 06:37:08;;;;;;;25.92;13.73;;;;;;;12.90;76.54;100486.19;5130992;27;20054;-49
2024/03/22 06:39:37;;;;;;;23.95;14.13;;;;;;;13.04;76.10;100477.25;5131095;27;20130;-49
2024/03/22 06:42:04;;;;;;;25.40;14.93;;;;;;;13.08;76.08;100476.09;5130685;27;20046;-52
2024/03/22 06:44:34;;;;;;;27.88;15.43;;;;;;;13.30;75.51;100484.41;5130699;27;20047;-47
2024/03/22 06:47:04;;;;;;;27.58;14.95;;;;;;;13.25;75.40;100491.06;5130579;27;20526;-48
2024/03/22 06:49:31;;;;;;;23.00;14.18;;;;;;;13.44;74.44;100488.84;5130712;27;20089;-49
2024/03/22 06:52:01;;;;;;;26.15;14.18;;;;;;;13.36;74.39;100492.03;5130959;27;20050;-48
2024/03/22 06:54:29;;;;;;;23.75;14.10;;;;;;;13.38;74.55;100490.09;5113457;27;20047;-47
2024/03/22 06:56:56;;;;;;;23.48;13.25;;;;;;;13.24;75.10;100487.53;5130497;27;20126;-47
2024/03/22 06:59:27;;;;;;;27.30;14.10;;;;;;;13.42;74.83;100493.47;5130724;27;20148;-51
2024/03/22 07:01:53;;;;;;;27.95;14.95;;;;;;;13.28;74.90;100497.06;5130418;27;20139;-47
2024/03/22 07:04:20;;;;;;;27.42;14.82;;;;;;;13.29;74.63;100495.22;5130287;27;20468;-48
2024/03/22 07:06:50;;;;;;;22.75;13.95;;;;;;;13.39;74.43;100501.69;5130860;27;20356;-47
2024/03/22 07:09:17;;;;;;;22.42;13.80;;;;;;;13.41;73.97;100500.63;5130633;27;20188;-47
2024/03/22 07:11:43;;;;;;;25.63;14.57;;;;;;;13.52;73.77;100502.59;5113367;27;20058;-50
2024/03/22 07:14:12;;;;;;;23.05;14.50;;;;;;;13.44;73.71;100507.59;5130033;27;20065;-49
2024/03/22 07:16:38;;;;;;;24.02;13.43;;;;;;;13.38;74.00;100510.69;5130200;27;20127;-46
2024/03/22 07:19:06;;;;;;;21.55;13.98;;;;;;;13.58;73.44;100507.50;5130195;27;20431;-46
2024/03/22 07:21:35;;;;;;;25.40;14.02;;;;;;;13.56;73.11;100513.94;5113519;28;20088;-51
2024/03/22 07:24:04;;;;;;;23.70;14.18;;;;;;;13.33;74.09;100499.44;5130189;27;20515;-49
2024/03/22 07:26:30;;;;;;;25.23;14.68;;;;;;;13.56;73.55;100504.06;5130067;27;20043;-49
2024/03/22 07:28:58;;;;;;;24.15;15.00;;;;;;;13.68;73.17;100503.22;5130723;27;20047;-48
2024/03/22 07:31:28;;;;;;;26.20;14.30;;;;;;;13.63;73.37;100505.38;5129885;27;20096;-50
2024/03/22 07:33:56;;;;;;;23.60;14.85;;;;;;;13.77;72.61;100509.78;5129907;27;20051;-49
2024/03/22 07:36:22;;;;;;;27.15;15.23;;;;;;;13.68;72.70;100503.22;5130219;27;20104;-49
2024/03/22 07:38:53;;;;;;;26.88;16.05;;;;;;;13.58;73.21;100512.88;5130123;27;20495;-49
2024/03/22 07:41:19;;;;;;;25.20;14.70;;;;;;;13.68;72.80;100519.31;5130149;28;20050;-49
2024/03/22 07:43:46;;;;;;;36.78;15.85;;;;;;;13.68;72.83;100519.31;5129907;28;20043;-49
2024/03/22 07:46:12;;;;;;;28.90;15.60;;;;;;;13.70;72.80;100520.09;5129800;27;20393;-48
2024/03/22 07:48:41;;;;;;;45.55;15.90;;;;;;;13.87;72.50;100512.69;5129871;27;20048;-47
2024/03/22 07:51:07;;;;;;;53.92;16.08;;;;;;;13.74;72.29;100518.91;5130064;28;20047;-48
2024/03/22 07:53:35;;;;;;;35.30;15.15;;;;;;;13.85;71.86;100517.28;5130118;28;20404;-48
2024/03/22 07:56:01;;;;;;;35.08;15.68;;;;;;;13.77;72.03;100527.69;5129682;28;20047;-49
2024/03/22 07:58:28;;;;;;;33.47;15.73;;;;;;;13.98;71.66;100527.03;5130381;27;20506;-48
2024/03/22 08:00:55;;;;;;;26.65;14.90;;;;;;;13.94;71.47;100538.09;5130349;27;20546;-47
2024/03/22 08:03:23;;;;;;;30.40;15.63;;;;;;;13.91;71.25;100527.59;5129702;27;20043;-48
2024/03/22 08:05:51;;;;;;;27.45;14.88;;;;;;;14.00;70.98;100529.66;5130112;28;20054;-47
2024/03/22 08:08:19;;;;;;;28.58;14.98;;;;;;;14.09;70.83;100533.47;5129666;27;20449;-47
2024/03/22 08:10:45;;;;;;;27.25;14.73;;;;;;;14.25;70.25;100534.97;5129500;27;20043;-47
2024/03/22 08:13:12;;;;;;;23.75;15.02;;;;;;;14.28;70.09;100518.69;5129392;27;20043;-44
2024/03/22 08:15:39;;;;;;;26.88;15.70;;;;;;;14.33;69.66;100529.94;5129682;27;20062;-46
2024/03/22 08:18:06;;;;;;;27.42;15.10;;;;;;;14.31;69.86;100531.88;5129518;27;20039;-46
2024/03/22 08:20:34;;;;;;;27.20;15.15;;;;;;;14.53;69.20;100530.34;5129567;28;20081;-46
2024/03/22 08:23:03;;;;;;;24.23;14.43;;;;;;;14.65;68.75;100534.84;5129724;27;20096;-49
2024/03/22 08:25:30;;;;;;;22.75;14.93;;;;;;;14.44;69.01;100534.53;5129563;27;20043;-46
2024/03/22 08:27:58;;;;;;;26.38;15.90;;;;;;;14.53;68.55;100528.53;5129538;27;20046;-46
2024/03/22 08:30:25;;;;;;;29.20;15.57;;;;;;;14.59;68.08;100532.63;5129525;27;20091;-48
2024/03/22 08:32:52;;;;;;;25.77;15.77;;;;;;;14.53;68.62;100530.34;5129724;27;20098;-47
2024/03/22 08:35:18;;;;;;;26.50;15.10;;;;;;;14.51;68.67;100532.31;5129449;28;20122;-47
2024/03/22 08:37:46;;;;;;;25.95;14.68;;;;;;;14.51;68.74;100532.31;5129608;27;20047;-46
2024/03/22 08:40:14;;;;;;;25.00;14.55;;;;;;;14.58;68.57;100529.06;5129371;27;20085;-45
2024/03/22 08:42:41;;;;;;;27.90;15.43;;;;;;;14.77;68.14;100528.59;5128938;28;20074;-47
2024/03/22 08:45:09;;;;;;;28.50;15.80;;;;;;;14.86;67.95;100530.59;5129512;27;20093;-46
2024/03/22 08:47:36;;;;;;;23.10;15.35;;;;;;;14.68;67.71;100531.09;5132892;27;20144;-46
2024/03/22 08:50:03;;;;;;;31.30;14.73;;;;;;;14.81;67.75;100524.69;5132885;27;20050;-46
2024/03/22 08:52:31;;;;;;;24.10;14.65;;;;;;;14.97;67.07;100527.13;5133292;27;20122;-50
2024/03/22 08:54:58;;;;;;;21.80;14.73;;;;;;;15.10;66.82;100516.31;5133155;27;20143;-48
2024/03/22 08:57:26;;;;;;;26.48;15.30;;;;;;;15.37;65.88;100514.22;5132754;27;20057;-47
2024/03/22 08:59:52;;;;;;;26.70;15.60;;;;;;;15.51;65.20;100515.00;5132954;27;20039;-47
2024/03/22 09:02:20;;;;;;;25.45;15.40;;;;;;;15.71;64.76;100517.03;5132572;27;20058;-46
2024/03/22 09:04:47;;;;;;;21.90;14.63;;;;;;;16.06;63.58;100508.91;5132615;27;20471;-48
2024/03/22 09:07:14;;;;;;;26.02;15.65;;;;;;;16.30;62.95;100506.09;5131932;27;20130;-45
2024/03/22 09:09:41;;;;;;;26.98;15.38;;;;;;;16.43;62.41;100496.09;5132168;27;20047;-46
2024/03/22 09:12:08;;;;;;;25.98;15.82;;;;;;;16.28;62.39;100503.53;5132520;27;20353;-47
2024/03/22 09:14:36;;;;;;;23.55;14.48;;;;;;;16.20;61.78;100502.44;5132175;27;20119;-47
2024/03/22 09:17:03;;;;;;;29.13;15.07;;;;;;;16.16;61.55;100498.28;5132431;27;20541;-47
2024/03/22 09:19:29;;;;;;;29.08;15.35;;;;;;;16.27;60.97;100493.75;5132348;27;20475;-49
2024/03/22 09:21:57;;;;;;;22.17;14.43;;;;;;;16.24;60.86;100499.38;5132149;27;20050;-48
2024/03/22 09:24:23;;;;;;;28.50;15.90;;;;;;;16.26;60.70;100483.13;5131890;27;20065;-47
2024/03/22 09:26:50;;;;;;;32.90;15.70;;;;;;;16.26;61.20;100485.81;5132191;27;20423;-48
2024/03/22 09:29:17;;;;;;;27.17;15.07;;;;;;;16.34;60.94;100479.81;5132122;27;20071;-48
2024/03/22 09:31:46;;;;;;;27.55;15.75;;;;;;;16.33;60.94;100481.66;5132607;27;20047;-47
2024/03/22 09:34:15;;;;;;;29.75;15.98;;;;;;;16.60;60.51;100484.81;5132344;27;20138;-48
2024/03/22 09:36:43;;;;;;;27.25;15.65;;;;;;;16.47;60.32;100489.44;5131903;27;20047;-49
2024/03/22 09:39:09;;;;;;;24.75;14.63;;;;;;;16.80;59.84;100475.13;5131843;27;20047;-46
2024/03/22 09:41:43;;;;;;;34.03;15.45;;;;;;;16.62;59.48;100473.06;5131492;27;20130;-46
2024/03/22 09:44:13;;;;;;;33.00;15.70;;;;;;;16.77;59.31;100471.81;5131999;27;20046;-45
2024/03/22 09:46:43;;;;;;;32.30;15.68;;;;;;;17.00;59.23;100470.75;5131903;27;20039;-46
2024/03/22 09:49:12;;;;;;;29.92;15.40;;;;;;;16.84;59.12;100468.47;5131706;27;20063;-46
2024/03/22 09:51:40;;;;;;;29.48;15.63;;;;;;;17.01;58.59;100477.88;5131664;27;20104;-49
2024/03/22 09:54:08;;;;;;;30.80;15.93;;;;;;;17.25;58.52;100474.09;5131563;27;20330;-47
2024/03/22 09:56:39;;;;;;;33.15;15.90;;;;;;;17.20;58.67;100476.31;5131088;27;20385;-46
2024/03/22 09:59:06;;;;;;;42.42;16.67;;;;;;;17.26;58.52;100470.41;5131765;27;20470;-45
2024/03/22 10:01:35;;;;;;;29.98;15.82;;;;;;;17.14;58.06;100459.66;5131511;27;20118;-45
2024/03/22 10:04:01;;;;;;;31.92;15.68;;;;;;;17.33;57.60;100466.19;5131327;27;20082;-45
2024/03/22 10:06:32;;;;;;;21.10;15.13;;;;;;;17.16;57.30;100459.53;5131371;27;20047;-46
2024/03/22 10:08:59;;;;;;;48.63;17.38;;;;;;;17.22;57.32;100463.56;5131508;27;20047;-47
2024/03/22 10:11:27;;;;;;;32.90;15.43;;;;;;;17.49;57.55;100457.66;5131216;27;20121;-46
2024/03/22 10:13:55;;;;;;;30.73;15.98;;;;;;;17.46;57.55;100462.31;5131146;27;20059;-45
2024/03/22 10:16:22;;;;;;;22.27;15.07;;;;;;;17.20;57.95;100460.16;5131220;27;20102;-46
2024/03/22 10:18:49;;;;;;;30.33;15.60;;;;;;;17.31;57.98;100450.16;5131089;27;20164;-45
2024/03/22 10:21:19;;;;;;;26.02;16.48;;;;;;;17.47;57.74;100444.31;5131156;27;20058;-48
2024/03/22 10:23:48;;;;;;;25.67;14.65;;;;;;;17.64;57.76;100443.69;5131137;27;20051;-47
2024/03/22 10:26:16;;;;;;;26.27;15.35;;;;;;;17.72;57.16;100452.03;5131149;27;20054;-49
2024/03/22 10:28:46;;;;;;;26.58;16.30;;;;;;;17.73;56.94;100437.53;5131044;27;20078;-47
2024/03/22 10:31:15;;;;;;;24.42;15.73;;;;;;;17.79;55.94;100443.41;5130830;27;20477;-49
2024/03/22 10:33:44;;;;;;;22.27;14.85;;;;;;;17.80;56.03;100439.72;5131326;27;20047;-45
2024/03/22 10:36:13;;;;;;;25.75;16.02;;;;;;;17.76;56.11;100438.25;5130662;27;20059;-45
2024/03/22 10:38:40;;;;;;;24.08;14.70;;;;;;;17.92;55.07;100435.94;5130728;27;20039;-49
2024/03/22 10:41:09;;;;;;;23.77;15.38;;;;;;;17.86;56.13;100431.94;5130546;27;20066;-45
2024/03/22 10:43:35;;;;;;;21.05;13.98;;;;;;;17.79;54.98;100438.00;5130437;27;20527;-47
2024/03/22 10:46:06;;;;;;;22.77;13.77;;;;;;;17.53;54.70;100443.78;5130505;27;20044;-46
2024/03/22 10:48:33;;;;;;;19.55;13.60;;;;;;;17.50;54.82;100446.75;5130859;27;20076;-46
2024/03/22 10:51:02;;;;;;;21.30;14.23;;;;;;;17.55;55.60;100436.41;5130958;27;20054;-48
2024/03/22 10:53:32;;;;;;;22.67;13.23;;;;;;;17.87;55.26;100438.19;5130612;27;20488;-47
2024/03/22 10:56:02;;;;;;;20.95;14.20;;;;;;;18.06;55.37;100443.69;5130497;27;20420;-47
2024/03/22 10:58:29;;;;;;;25.42;14.32;;;;;;;18.06;55.41;100448.22;5130397;27;20078;-45
2024/03/22 11:00:57;;;;;;;21.63;14.00;;;;;;;18.18;54.55;100437.19;5130642;27;20058;-50
2024/03/22 11:03:25;;;;;;;19.60;13.27;;;;;;;18.21;53.60;100427.97;5130526;27;20172;-50
2024/03/22 11:05:56;;;;;;;19.58;12.70;;;;;;;18.22;53.46;100432.38;5130431;27;20051;-45
2024/03/22 11:08:26;;;;;;;19.90;13.25;;;;;;;17.94;52.92;100436.66;5130010;27;20419;-45
2024/03/22 11:10:54;;;;;;;19.20;13.43;;;;;;;17.88;52.25;100429.97;5130219;27;20062;-46
2024/03/22 11:13:21;;;;;;;16.20;11.93;;;;;;;17.65;51.53;100440.00;5130684;27;20043;-49